sensor_id;sensor_type;location;lat;lon;timestamp;P1;durP1;ratioP1;P2;durP2;ratioP2
14100;SDS011;7127;49.372;8.166;2023-05-15T00:01:36;1.10;;;1.00;;
14100;SDS011;7127;49.372;8.166;2023-05-15T00:04:03;1.50;;;1.40;;
14100;SDS011;7127;49.372;8.166;2023-05-15T00:06:32;2.30;;;1.63;;
14100;SDS011;7127;49.372;8.166;2023-05-15T00:09:00;1.60;;;1.40;;
14100;SDS011;7127;49.372;8.166;2023-05-15T00:11:28;1.40;;;1.30;;
14100;SDS011;7127;49.372;8.166;2023-05-15T00:13:55;1.30;;;1.20;;
14100;SDS011;7127;49.372;8.166;2023-05-15T00:16:24;1.27;;;1.17;;
14100;SDS011;7127;49.372;8.166;2023-05-15T00:18:52;1.20;;;1.10;;
14100;SDS011;7127;49.372;8.166;2023-05-15T00:21:29;1.50;;;1.13;;
14100;SDS011;7127;49.372;8.166;2023-05-15T00:23:59;0.90;;;0.90;;
14100;SDS011;7127;49.372;8.166;2023-05-15T00:26:26;0.90;;;0.90;;
14100;SDS011;7127;49.372;8.166;2023-05-15T00:28:56;0.83;;;0.83;;
14100;SDS011;7127;49.372;8.166;2023-05-15T00:31:24;1.03;;;1.00;;
14100;SDS011;7127;49.372;8.166;2023-05-15T00:33:51;1.10;;;0.90;;
14100;SDS011;7127;49.372;8.166;2023-05-15T00:38:50;1.20;;;1.10;;
14100;SDS011;7127;49.372;8.166;2023-05-15T00:41:19;1.10;;;0.90;;
14100;SDS011;7127;49.372;8.166;2023-05-15T00:43:51;1.27;;;1.10;;
14100;SDS011;7127;49.372;8.166;2023-05-15T00:46:28;1.40;;;1.17;;
14100;SDS011;7127;49.372;8.166;2023-05-15T00:49:02;1.60;;;1.20;;
14100;SDS011;7127;49.372;8.166;2023-05-15T00:51:30;1.27;;;1.17;;
14100;SDS011;7127;49.372;8.166;2023-05-15T00:54:00;1.20;;;1.10;;
14100;SDS011;7127;49.372;8.166;2023-05-15T00:56:29;2.17;;;1.03;;
14100;SDS011;7127;49.372;8.166;2023-05-15T01:02:04;2.47;;;1.30;;
14100;SDS011;7127;49.372;8.166;2023-05-15T01:04:38;1.53;;;1.00;;
14100;SDS011;7127;49.372;8.166;2023-05-15T01:07:10;1.40;;;1.30;;
14100;SDS011;7127;49.372;8.166;2023-05-15T01:09:41;1.40;;;1.13;;
14100;SDS011;7127;49.372;8.166;2023-05-15T01:12:30;1.40;;;1.30;;
14100;SDS011;7127;49.372;8.166;2023-05-15T01:14:59;1.33;;;1.17;;
14100;SDS011;7127;49.372;8.166;2023-05-15T01:17:29;1.60;;;1.13;;
14100;SDS011;7127;49.372;8.166;2023-05-15T01:19:57;1.00;;;1.00;;
14100;SDS011;7127;49.372;8.166;2023-05-15T01:22:40;1.23;;;1.10;;
14100;SDS011;7127;49.372;8.166;2023-05-15T01:28:24;1.00;;;1.00;;
14100;SDS011;7127;49.372;8.166;2023-05-15T01:33:37;1.20;;;1.10;;
14100;SDS011;7127;49.372;8.166;2023-05-15T01:36:17;1.47;;;1.00;;
14100;SDS011;7127;49.372;8.166;2023-05-15T01:38:51;1.20;;;1.10;;
14100;SDS011;7127;49.372;8.166;2023-05-15T01:41:21;1.30;;;1.20;;
14100;SDS011;7127;49.372;8.166;2023-05-15T01:43:58;1.63;;;1.20;;
14100;SDS011;7127;49.372;8.166;2023-05-15T01:46:30;1.30;;;1.20;;
14100;SDS011;7127;49.372;8.166;2023-05-15T01:48:59;1.30;;;1.20;;
14100;SDS011;7127;49.372;8.166;2023-05-15T01:51:29;1.50;;;1.13;;
14100;SDS011;7127;49.372;8.166;2023-05-15T01:53:57;2.10;;;1.20;;
14100;SDS011;7127;49.372;8.166;2023-05-15T01:56:26;1.40;;;1.20;;
14100;SDS011;7127;49.372;8.166;2023-05-15T01:58:54;1.30;;;1.20;;
14100;SDS011;7127;49.372;8.166;2023-05-15T02:01:26;1.20;;;1.10;;
14100;SDS011;7127;49.372;8.166;2023-05-15T02:03:55;1.57;;;1.30;;
14100;SDS011;7127;49.372;8.166;2023-05-15T02:06:23;1.50;;;1.10;;
14100;SDS011;7127;49.372;8.166;2023-05-15T02:08:52;1.40;;;1.30;;
14100;SDS011;7127;49.372;8.166;2023-05-15T02:11:24;2.00;;;1.20;;
14100;SDS011;7127;49.372;8.166;2023-05-15T02:13:52;1.33;;;1.23;;
14100;SDS011;7127;49.372;8.166;2023-05-15T02:16:24;2.20;;;1.20;;
14100;SDS011;7127;49.372;8.166;2023-05-15T02:18:53;1.40;;;1.30;;
14100;SDS011;7127;49.372;8.166;2023-05-15T02:21:21;1.20;;;1.10;;
14100;SDS011;7127;49.372;8.166;2023-05-15T02:23:49;1.73;;;1.23;;
14100;SDS011;7127;49.372;8.166;2023-05-15T02:26:20;1.37;;;1.20;;
14100;SDS011;7127;49.372;8.166;2023-05-15T02:28:57;1.77;;;1.30;;
14100;SDS011;7127;49.372;8.166;2023-05-15T02:31:37;1.20;;;1.10;;
14100;SDS011;7127;49.372;8.166;2023-05-15T02:34:14;1.83;;;1.40;;
14100;SDS011;7127;49.372;8.166;2023-05-15T02:36:49;1.20;;;1.10;;
14100;SDS011;7127;49.372;8.166;2023-05-15T02:39:20;1.67;;;1.40;;
14100;SDS011;7127;49.372;8.166;2023-05-15T02:41:58;1.40;;;1.30;;
14100;SDS011;7127;49.372;8.166;2023-05-15T02:44:27;2.70;;;1.50;;
14100;SDS011;7127;49.372;8.166;2023-05-15T02:46:58;1.60;;;1.30;;
14100;SDS011;7127;49.372;8.166;2023-05-15T02:49:27;1.37;;;1.27;;
14100;SDS011;7127;49.372;8.166;2023-05-15T02:51:59;1.23;;;1.13;;
14100;SDS011;7127;49.372;8.166;2023-05-15T02:54:27;1.33;;;1.23;;
14100;SDS011;7127;49.372;8.166;2023-05-15T02:56:55;1.30;;;1.20;;
14100;SDS011;7127;49.372;8.166;2023-05-15T02:59:22;2.07;;;1.67;;
14100;SDS011;7127;49.372;8.166;2023-05-15T03:01:56;1.80;;;1.50;;
14100;SDS011;7127;49.372;8.166;2023-05-15T03:04:27;1.50;;;1.40;;
14100;SDS011;7127;49.372;8.166;2023-05-15T03:06:55;1.60;;;1.50;;
14100;SDS011;7127;49.372;8.166;2023-05-15T03:09:23;1.40;;;1.30;;
14100;SDS011;7127;49.372;8.166;2023-05-15T03:11:50;1.57;;;1.47;;
14100;SDS011;7127;49.372;8.166;2023-05-15T03:14:18;1.60;;;1.50;;
14100;SDS011;7127;49.372;8.166;2023-05-15T03:16:46;1.57;;;1.47;;
14100;SDS011;7127;49.372;8.166;2023-05-15T03:19:15;1.67;;;1.20;;
14100;SDS011;7127;49.372;8.166;2023-05-15T03:21:43;1.53;;;1.43;;
14100;SDS011;7127;49.372;8.166;2023-05-15T03:24:11;1.53;;;1.43;;
14100;SDS011;7127;49.372;8.166;2023-05-15T03:26:39;2.53;;;1.43;;
14100;SDS011;7127;49.372;8.166;2023-05-15T03:29:08;2.70;;;1.53;;
14100;SDS011;7127;49.372;8.166;2023-05-15T03:31:36;1.90;;;1.70;;
14100;SDS011;7127;49.372;8.166;2023-05-15T03:34:05;2.27;;;1.70;;
14100;SDS011;7127;49.372;8.166;2023-05-15T03:36:35;1.67;;;1.50;;
14100;SDS011;7127;49.372;8.166;2023-05-15T03:39:03;1.87;;;1.40;;
14100;SDS011;7127;49.372;8.166;2023-05-15T03:41:32;1.23;;;1.13;;
14100;SDS011;7127;49.372;8.166;2023-05-15T03:43:59;1.50;;;1.40;;
14100;SDS011;7127;49.372;8.166;2023-05-15T03:46:27;1.40;;;1.30;;
14100;SDS011;7127;49.372;8.166;2023-05-15T03:48:55;1.77;;;1.40;;
14100;SDS011;7127;49.372;8.166;2023-05-15T03:51:25;1.70;;;1.60;;
14100;SDS011;7127;49.372;8.166;2023-05-15T03:53:56;1.83;;;1.37;;
14100;SDS011;7127;49.372;8.166;2023-05-15T03:56:24;1.40;;;1.30;;
14100;SDS011;7127;49.372;8.166;2023-05-15T03:58:54;1.50;;;1.40;;
14100;SDS011;7127;49.372;8.166;2023-05-15T04:01:25;1.57;;;1.47;;
14100;SDS011;7127;49.372;8.166;2023-05-15T04:03:53;1.40;;;1.30;;
14100;SDS011;7127;49.372;8.166;2023-05-15T04:06:20;1.60;;;1.50;;
14100;SDS011;7127;49.372;8.166;2023-05-15T04:08:48;1.43;;;1.33;;
14100;SDS011;7127;49.372;8.166;2023-05-15T04:11:18;1.67;;;1.57;;
14100;SDS011;7127;49.372;8.166;2023-05-15T04:13:48;1.50;;;1.40;;
14100;SDS011;7127;49.372;8.166;2023-05-15T04:16:16;1.70;;;1.60;;
14100;SDS011;7127;49.372;8.166;2023-05-15T04:18:44;1.40;;;1.30;;
14100;SDS011;7127;49.372;8.166;2023-05-15T04:21:12;1.50;;;1.30;;
14100;SDS011;7127;49.372;8.166;2023-05-15T04:23:40;1.63;;;1.53;;
14100;SDS011;7127;49.372;8.166;2023-05-15T04:26:07;2.37;;;1.50;;
14100;SDS011;7127;49.372;8.166;2023-05-15T04:28:37;2.30;;;1.53;;
14100;SDS011;7127;49.372;8.166;2023-05-15T04:31:05;1.83;;;1.50;;
14100;SDS011;7127;49.372;8.166;2023-05-15T04:33:33;1.50;;;1.40;;
14100;SDS011;7127;49.372;8.166;2023-05-15T04:36:01;1.10;;;1.00;;
14100;SDS011;7127;49.372;8.166;2023-05-15T04:38:28;1.40;;;1.30;;
14100;SDS011;7127;49.372;8.166;2023-05-15T04:40:56;1.30;;;1.20;;
14100;SDS011;7127;49.372;8.166;2023-05-15T04:43:33;1.40;;;1.30;;
14100;SDS011;7127;49.372;8.166;2023-05-15T04:46:02;1.27;;;1.17;;
14100;SDS011;7127;49.372;8.166;2023-05-15T04:48:30;1.33;;;1.23;;
14100;SDS011;7127;49.372;8.166;2023-05-15T04:50:57;1.40;;;1.30;;
14100;SDS011;7127;49.372;8.166;2023-05-15T04:53:24;1.67;;;1.30;;
14100;SDS011;7127;49.372;8.166;2023-05-15T04:55:51;2.03;;;1.00;;
14100;SDS011;7127;49.372;8.166;2023-05-15T04:58:21;1.50;;;1.40;;
14100;SDS011;7127;49.372;8.166;2023-05-15T05:00:48;1.30;;;1.20;;
14100;SDS011;7127;49.372;8.166;2023-05-15T05:03:17;1.33;;;1.23;;
14100;SDS011;7127;49.372;8.166;2023-05-15T05:05:44;2.40;;;1.20;;
14100;SDS011;7127;49.372;8.166;2023-05-15T05:08:11;1.23;;;1.13;;
14100;SDS011;7127;49.372;8.166;2023-05-15T05:10:38;1.30;;;1.20;;
14100;SDS011;7127;49.372;8.166;2023-05-15T05:13:05;1.40;;;1.30;;
14100;SDS011;7127;49.372;8.166;2023-05-15T05:15:32;1.30;;;1.20;;
14100;SDS011;7127;49.372;8.166;2023-05-15T05:17:59;3.93;;;1.17;;
14100;SDS011;7127;49.372;8.166;2023-05-15T05:20:27;1.27;;;1.17;;
14100;SDS011;7127;49.372;8.166;2023-05-15T05:22:54;1.20;;;1.10;;
14100;SDS011;7127;49.372;8.166;2023-05-15T05:25:21;0.83;;;0.83;;
14100;SDS011;7127;49.372;8.166;2023-05-15T05:27:48;1.10;;;1.00;;
14100;SDS011;7127;49.372;8.166;2023-05-15T05:30:15;0.93;;;0.93;;
14100;SDS011;7127;49.372;8.166;2023-05-15T05:32:42;0.90;;;0.80;;
14100;SDS011;7127;49.372;8.166;2023-05-15T05:35:09;0.80;;;0.80;;
14100;SDS011;7127;49.372;8.166;2023-05-15T05:37:37;0.93;;;0.93;;
14100;SDS011;7127;49.372;8.166;2023-05-15T05:40:05;1.00;;;0.90;;
14100;SDS011;7127;49.372;8.166;2023-05-15T05:42:32;1.03;;;1.03;;
14100;SDS011;7127;49.372;8.166;2023-05-15T05:45:00;0.93;;;0.90;;
14100;SDS011;7127;49.372;8.166;2023-05-15T05:47:27;1.10;;;1.00;;
14100;SDS011;7127;49.372;8.166;2023-05-15T05:49:53;0.90;;;0.90;;
14100;SDS011;7127;49.372;8.166;2023-05-15T05:52:21;1.20;;;1.10;;
14100;SDS011;7127;49.372;8.166;2023-05-15T05:54:49;1.10;;;1.00;;
14100;SDS011;7127;49.372;8.166;2023-05-15T05:57:16;1.00;;;0.90;;
14100;SDS011;7127;49.372;8.166;2023-05-15T05:59:43;1.00;;;0.90;;
14100;SDS011;7127;49.372;8.166;2023-05-15T06:02:10;1.00;;;1.00;;
14100;SDS011;7127;49.372;8.166;2023-05-15T06:04:38;0.97;;;0.90;;
14100;SDS011;7127;49.372;8.166;2023-05-15T06:07:05;0.90;;;0.90;;
14100;SDS011;7127;49.372;8.166;2023-05-15T06:09:32;0.90;;;0.90;;
14100;SDS011;7127;49.372;8.166;2023-05-15T06:12:01;0.90;;;0.90;;
14100;SDS011;7127;49.372;8.166;2023-05-15T06:14:28;0.77;;;0.77;;
14100;SDS011;7127;49.372;8.166;2023-05-15T06:16:55;2.73;;;1.03;;
14100;SDS011;7127;49.372;8.166;2023-05-15T06:19:22;1.00;;;1.00;;
14100;SDS011;7127;49.372;8.166;2023-05-15T06:21:49;0.97;;;0.93;;
14100;SDS011;7127;49.372;8.166;2023-05-15T06:24:16;0.90;;;0.90;;
14100;SDS011;7127;49.372;8.166;2023-05-15T06:26:43;1.07;;;1.00;;
14100;SDS011;7127;49.372;8.166;2023-05-15T06:29:11;1.10;;;1.03;;
14100;SDS011;7127;49.372;8.166;2023-05-15T06:31:38;1.17;;;1.07;;
14100;SDS011;7127;49.372;8.166;2023-05-15T06:34:05;0.90;;;0.90;;
14100;SDS011;7127;49.372;8.166;2023-05-15T06:36:32;1.30;;;1.03;;
14100;SDS011;7127;49.372;8.166;2023-05-15T06:38:59;0.90;;;0.90;;
14100;SDS011;7127;49.372;8.166;2023-05-15T06:41:26;0.80;;;0.80;;
14100;SDS011;7127;49.372;8.166;2023-05-15T06:43:53;0.90;;;0.90;;
14100;SDS011;7127;49.372;8.166;2023-05-15T06:46:21;1.10;;;1.00;;
14100;SDS011;7127;49.372;8.166;2023-05-15T06:48:48;1.60;;;1.10;;
14100;SDS011;7127;49.372;8.166;2023-05-15T06:51:15;1.40;;;1.30;;
14100;SDS011;7127;49.372;8.166;2023-05-15T06:53:42;1.10;;;1.00;;
14100;SDS011;7127;49.372;8.166;2023-05-15T06:56:09;1.13;;;1.03;;
14100;SDS011;7127;49.372;8.166;2023-05-15T06:58:36;1.00;;;0.90;;
14100;SDS011;7127;49.372;8.166;2023-05-15T07:01:04;2.00;;;1.07;;
14100;SDS011;7127;49.372;8.166;2023-05-15T07:03:33;1.17;;;1.07;;
14100;SDS011;7127;49.372;8.166;2023-05-15T07:06:00;0.93;;;0.83;;
14100;SDS011;7127;49.372;8.166;2023-05-15T07:08:27;1.23;;;1.07;;
14100;SDS011;7127;49.372;8.166;2023-05-15T07:10:54;1.00;;;1.00;;
14100;SDS011;7127;49.372;8.166;2023-05-15T07:13:22;2.00;;;1.00;;
14100;SDS011;7127;49.372;8.166;2023-05-15T07:15:49;2.70;;;0.97;;
14100;SDS011;7127;49.372;8.166;2023-05-15T07:18:16;1.03;;;1.00;;
14100;SDS011;7127;49.372;8.166;2023-05-15T07:20:45;1.20;;;1.00;;
14100;SDS011;7127;49.372;8.166;2023-05-15T07:23:12;1.20;;;1.10;;
14100;SDS011;7127;49.372;8.166;2023-05-15T07:25:40;1.10;;;0.97;;
14100;SDS011;7127;49.372;8.166;2023-05-15T07:28:07;1.10;;;1.10;;
14100;SDS011;7127;49.372;8.166;2023-05-15T07:30:35;1.00;;;1.00;;
14100;SDS011;7127;49.372;8.166;2023-05-15T07:33:02;1.20;;;1.10;;
14100;SDS011;7127;49.372;8.166;2023-05-15T07:35:29;1.40;;;1.30;;
14100;SDS011;7127;49.372;8.166;2023-05-15T07:37:57;1.27;;;1.17;;
14100;SDS011;7127;49.372;8.166;2023-05-15T07:40:25;1.40;;;1.30;;
14100;SDS011;7127;49.372;8.166;2023-05-15T07:42:52;1.20;;;1.10;;
14100;SDS011;7127;49.372;8.166;2023-05-15T07:45:19;1.10;;;1.00;;
14100;SDS011;7127;49.372;8.166;2023-05-15T07:47:46;2.17;;;1.47;;
14100;SDS011;7127;49.372;8.166;2023-05-15T07:50:14;1.40;;;1.30;;
14100;SDS011;7127;49.372;8.166;2023-05-15T07:52:41;1.50;;;1.40;;
14100;SDS011;7127;49.372;8.166;2023-05-15T07:55:10;1.50;;;1.40;;
14100;SDS011;7127;49.372;8.166;2023-05-15T07:57:37;1.70;;;1.30;;
14100;SDS011;7127;49.372;8.166;2023-05-15T08:00:05;1.53;;;1.43;;
14100;SDS011;7127;49.372;8.166;2023-05-15T08:02:37;1.40;;;1.30;;
14100;SDS011;7127;49.372;8.166;2023-05-15T08:05:04;1.53;;;1.30;;
14100;SDS011;7127;49.372;8.166;2023-05-15T08:07:33;1.40;;;1.27;;
14100;SDS011;7127;49.372;8.166;2023-05-15T08:10:01;1.67;;;1.50;;
14100;SDS011;7127;49.372;8.166;2023-05-15T08:12:31;1.50;;;1.40;;
14100;SDS011;7127;49.372;8.166;2023-05-15T08:14:58;1.33;;;1.23;;
14100;SDS011;7127;49.372;8.166;2023-05-15T08:17:25;2.23;;;1.30;;
14100;SDS011;7127;49.372;8.166;2023-05-15T08:19:52;2.03;;;1.67;;
14100;SDS011;7127;49.372;8.166;2023-05-15T08:22:19;1.50;;;1.40;;
14100;SDS011;7127;49.372;8.166;2023-05-15T08:24:46;1.97;;;1.53;;
14100;SDS011;7127;49.372;8.166;2023-05-15T08:27:14;1.67;;;1.57;;
14100;SDS011;7127;49.372;8.166;2023-05-15T08:29:42;1.50;;;1.40;;
14100;SDS011;7127;49.372;8.166;2023-05-15T08:32:10;1.80;;;1.70;;
14100;SDS011;7127;49.372;8.166;2023-05-15T08:34:37;2.87;;;1.70;;
14100;SDS011;7127;49.372;8.166;2023-05-15T08:37:04;1.60;;;1.50;;
14100;SDS011;7127;49.372;8.166;2023-05-15T08:39:31;2.30;;;1.50;;
14100;SDS011;7127;49.372;8.166;2023-05-15T08:42:01;2.47;;;1.50;;
14100;SDS011;7127;49.372;8.166;2023-05-15T08:44:33;2.90;;;1.47;;
14100;SDS011;7127;49.372;8.166;2023-05-15T08:47:03;1.97;;;1.50;;
14100;SDS011;7127;49.372;8.166;2023-05-15T08:49:32;3.00;;;1.87;;
14100;SDS011;7127;49.372;8.166;2023-05-15T08:52:05;2.10;;;1.40;;
14100;SDS011;7127;49.372;8.166;2023-05-15T08:54:32;1.70;;;1.60;;
14100;SDS011;7127;49.372;8.166;2023-05-15T08:57:01;1.60;;;1.50;;
14100;SDS011;7127;49.372;8.166;2023-05-15T08:59:28;3.53;;;1.80;;
14100;SDS011;7127;49.372;8.166;2023-05-15T09:01:55;1.73;;;1.63;;
14100;SDS011;7127;49.372;8.166;2023-05-15T09:04:24;7.27;;;1.90;;
14100;SDS011;7127;49.372;8.166;2023-05-15T09:06:51;1.60;;;1.50;;
14100;SDS011;7127;49.372;8.166;2023-05-15T09:09:19;1.70;;;1.60;;
14100;SDS011;7127;49.372;8.166;2023-05-15T09:11:47;1.63;;;1.53;;
14100;SDS011;7127;49.372;8.166;2023-05-15T09:14:17;2.83;;;1.87;;
14100;SDS011;7127;49.372;8.166;2023-05-15T09:16:44;3.27;;;1.80;;
14100;SDS011;7127;49.372;8.166;2023-05-15T09:19:13;1.80;;;1.50;;
14100;SDS011;7127;49.372;8.166;2023-05-15T09:21:42;1.70;;;1.57;;
14100;SDS011;7127;49.372;8.166;2023-05-15T09:24:16;1.33;;;1.23;;
14100;SDS011;7127;49.372;8.166;2023-05-15T09:27:02;1.60;;;1.50;;
14100;SDS011;7127;49.372;8.166;2023-05-15T09:29:36;1.60;;;1.50;;
14100;SDS011;7127;49.372;8.166;2023-05-15T09:32:04;1.73;;;1.63;;
14100;SDS011;7127;49.372;8.166;2023-05-15T09:34:33;1.50;;;1.40;;
14100;SDS011;7127;49.372;8.166;2023-05-15T09:37:02;1.60;;;1.50;;
14100;SDS011;7127;49.372;8.166;2023-05-15T09:39:31;1.37;;;1.27;;
14100;SDS011;7127;49.372;8.166;2023-05-15T09:42:04;1.87;;;1.47;;
14100;SDS011;7127;49.372;8.166;2023-05-15T09:44:32;1.70;;;1.60;;
14100;SDS011;7127;49.372;8.166;2023-05-15T09:46:59;2.00;;;1.53;;
14100;SDS011;7127;49.372;8.166;2023-05-15T09:49:27;2.03;;;1.40;;
14100;SDS011;7127;49.372;8.166;2023-05-15T09:51:57;1.50;;;1.40;;
14100;SDS011;7127;49.372;8.166;2023-05-15T09:54:25;1.50;;;1.40;;
14100;SDS011;7127;49.372;8.166;2023-05-15T09:56:55;1.43;;;1.33;;
14100;SDS011;7127;49.372;8.166;2023-05-15T09:59:32;1.50;;;1.40;;
14100;SDS011;7127;49.372;8.166;2023-05-15T10:01:59;1.47;;;1.37;;
14100;SDS011;7127;49.372;8.166;2023-05-15T10:04:26;1.27;;;1.17;;
14100;SDS011;7127;49.372;8.166;2023-05-15T10:07:00;1.40;;;1.17;;
14100;SDS011;7127;49.372;8.166;2023-05-15T10:09:29;1.23;;;1.17;;
14100;SDS011;7127;49.372;8.166;2023-05-15T10:11:57;1.93;;;1.30;;
14100;SDS011;7127;49.372;8.166;2023-05-15T10:14:25;1.30;;;1.20;;
14100;SDS011;7127;49.372;8.166;2023-05-15T10:16:55;1.27;;;1.17;;
14100;SDS011;7127;49.372;8.166;2023-05-15T10:19:23;1.50;;;1.40;;
14100;SDS011;7127;49.372;8.166;2023-05-15T10:21:53;1.57;;;1.47;;
14100;SDS011;7127;49.372;8.166;2023-05-15T10:24:24;1.50;;;1.30;;
14100;SDS011;7127;49.372;8.166;2023-05-15T10:26:56;1.80;;;1.47;;
14100;SDS011;7127;49.372;8.166;2023-05-15T10:29:24;1.20;;;1.10;;
14100;SDS011;7127;49.372;8.166;2023-05-15T10:31:54;1.20;;;1.10;;
14100;SDS011;7127;49.372;8.166;2023-05-15T10:34:22;1.20;;;1.10;;
14100;SDS011;7127;49.372;8.166;2023-05-15T10:36:50;0.93;;;0.93;;
14100;SDS011;7127;49.372;8.166;2023-05-15T10:39:19;1.30;;;1.20;;
14100;SDS011;7127;49.372;8.166;2023-05-15T10:41:46;1.00;;;0.90;;
14100;SDS011;7127;49.372;8.166;2023-05-15T10:44:17;1.33;;;1.20;;
14100;SDS011;7127;49.372;8.166;2023-05-15T10:46:45;1.40;;;1.30;;
14100;SDS011;7127;49.372;8.166;2023-05-15T10:49:13;1.40;;;1.10;;
14100;SDS011;7127;49.372;8.166;2023-05-15T10:51:40;1.10;;;1.00;;
14100;SDS011;7127;49.372;8.166;2023-05-15T10:54:08;1.37;;;1.27;;
14100;SDS011;7127;49.372;8.166;2023-05-15T10:56:36;1.40;;;1.30;;
14100;SDS011;7127;49.372;8.166;2023-05-15T10:59:04;1.37;;;1.27;;
14100;SDS011;7127;49.372;8.166;2023-05-15T11:01:34;1.47;;;1.37;;
14100;SDS011;7127;49.372;8.166;2023-05-15T11:04:05;1.30;;;1.20;;
14100;SDS011;7127;49.372;8.166;2023-05-15T11:06:33;1.67;;;1.30;;
14100;SDS011;7127;49.372;8.166;2023-05-15T11:12:02;1.30;;;1.20;;
14100;SDS011;7127;49.372;8.166;2023-05-15T11:14:30;1.20;;;1.10;;
14100;SDS011;7127;49.372;8.166;2023-05-15T11:17:06;1.17;;;1.00;;
14100;SDS011;7127;49.372;8.166;2023-05-15T11:19:37;1.50;;;1.40;;
14100;SDS011;7127;49.372;8.166;2023-05-15T11:22:25;1.27;;;0.90;;
14100;SDS011;7127;49.372;8.166;2023-05-15T11:25:03;1.77;;;1.10;;
14100;SDS011;7127;49.372;8.166;2023-05-15T11:27:37;2.50;;;1.20;;
14100;SDS011;7127;49.372;8.166;2023-05-15T11:30:07;1.27;;;1.17;;
14100;SDS011;7127;49.372;8.166;2023-05-15T11:32:44;1.70;;;1.60;;
14100;SDS011;7127;49.372;8.166;2023-05-15T11:35:19;1.50;;;1.40;;
14100;SDS011;7127;49.372;8.166;2023-05-15T11:37:48;1.30;;;1.20;;
14100;SDS011;7127;49.372;8.166;2023-05-15T11:40:18;1.93;;;1.60;;
14100;SDS011;7127;49.372;8.166;2023-05-15T11:43:05;1.80;;;1.60;;
14100;SDS011;7127;49.372;8.166;2023-05-15T11:45:34;2.13;;;1.93;;
14100;SDS011;7127;49.372;8.166;2023-05-15T11:48:04;2.03;;;1.83;;
14100;SDS011;7127;49.372;8.166;2023-05-15T11:50:33;5.00;;;1.90;;
14100;SDS011;7127;49.372;8.166;2023-05-15T11:53:01;1.90;;;1.80;;
14100;SDS011;7127;49.372;8.166;2023-05-15T11:55:30;2.27;;;2.07;;
14100;SDS011;7127;49.372;8.166;2023-05-15T11:57:58;2.03;;;1.93;;
14100;SDS011;7127;49.372;8.166;2023-05-15T12:00:25;3.17;;;2.00;;
14100;SDS011;7127;49.372;8.166;2023-05-15T12:02:52;3.40;;;2.80;;
14100;SDS011;7127;49.372;8.166;2023-05-15T12:05:21;3.73;;;3.03;;
14100;SDS011;7127;49.372;8.166;2023-05-15T12:07:48;2.90;;;2.70;;
14100;SDS011;7127;49.372;8.166;2023-05-15T12:10:15;3.77;;;3.00;;
14100;SDS011;7127;49.372;8.166;2023-05-15T12:12:42;3.10;;;2.80;;
14100;SDS011;7127;49.372;8.166;2023-05-15T12:15:10;2.40;;;2.20;;
14100;SDS011;7127;49.372;8.166;2023-05-15T12:17:38;2.70;;;2.07;;
14100;SDS011;7127;49.372;8.166;2023-05-15T12:20:06;2.27;;;2.10;;
14100;SDS011;7127;49.372;8.166;2023-05-15T12:22:38;2.20;;;2.00;;
14100;SDS011;7127;49.372;8.166;2023-05-15T12:25:06;2.47;;;2.10;;
14100;SDS011;7127;49.372;8.166;2023-05-15T12:27:33;1.77;;;1.67;;
14100;SDS011;7127;49.372;8.166;2023-05-15T12:30:01;2.23;;;1.77;;
14100;SDS011;7127;49.372;8.166;2023-05-15T12:32:30;1.70;;;1.60;;
14100;SDS011;7127;49.372;8.166;2023-05-15T12:34:58;1.73;;;1.63;;
14100;SDS011;7127;49.372;8.166;2023-05-15T12:37:25;1.60;;;1.50;;
14100;SDS011;7127;49.372;8.166;2023-05-15T12:39:55;1.80;;;1.70;;
14100;SDS011;7127;49.372;8.166;2023-05-15T12:42:25;1.63;;;1.53;;
14100;SDS011;7127;49.372;8.166;2023-05-15T12:44:53;2.97;;;1.60;;
14100;SDS011;7127;49.372;8.166;2023-05-15T12:47:21;2.50;;;1.50;;
14100;SDS011;7127;49.372;8.166;2023-05-15T12:49:49;2.10;;;1.70;;
14100;SDS011;7127;49.372;8.166;2023-05-15T12:52:20;1.70;;;1.60;;
14100;SDS011;7127;49.372;8.166;2023-05-15T12:54:47;1.97;;;1.73;;
14100;SDS011;7127;49.372;8.166;2023-05-15T12:57:15;3.07;;;1.80;;
14100;SDS011;7127;49.372;8.166;2023-05-15T12:59:42;2.00;;;1.80;;
14100;SDS011;7127;49.372;8.166;2023-05-15T13:02:09;2.00;;;1.50;;
14100;SDS011;7127;49.372;8.166;2023-05-15T13:04:37;1.50;;;1.40;;
14100;SDS011;7127;49.372;8.166;2023-05-15T13:07:04;1.60;;;1.50;;
14100;SDS011;7127;49.372;8.166;2023-05-15T13:09:32;1.73;;;1.50;;
14100;SDS011;7127;49.372;8.166;2023-05-15T13:12:00;1.50;;;1.40;;
14100;SDS011;7127;49.372;8.166;2023-05-15T13:14:32;1.60;;;1.50;;
14100;SDS011;7127;49.372;8.166;2023-05-15T13:16:59;2.30;;;1.60;;
14100;SDS011;7127;49.372;8.166;2023-05-15T13:19:27;1.70;;;1.60;;
14100;SDS011;7127;49.372;8.166;2023-05-15T13:21:55;1.43;;;1.33;;
14100;SDS011;7127;49.372;8.166;2023-05-15T13:24:22;1.83;;;1.70;;
14100;SDS011;7127;49.372;8.166;2023-05-15T13:26:49;1.60;;;1.50;;
14100;SDS011;7127;49.372;8.166;2023-05-15T13:29:16;1.50;;;1.40;;
14100;SDS011;7127;49.372;8.166;2023-05-15T13:31:45;1.27;;;1.17;;
14100;SDS011;7127;49.372;8.166;2023-05-15T13:34:12;1.33;;;1.23;;
14100;SDS011;7127;49.372;8.166;2023-05-15T13:36:39;2.03;;;1.10;;
14100;SDS011;7127;49.372;8.166;2023-05-15T13:39:06;1.33;;;1.23;;
14100;SDS011;7127;49.372;8.166;2023-05-15T13:41:35;1.20;;;1.10;;
14100;SDS011;7127;49.372;8.166;2023-05-15T13:44:03;1.40;;;1.30;;
14100;SDS011;7127;49.372;8.166;2023-05-15T13:46:30;2.30;;;1.30;;
14100;SDS011;7127;49.372;8.166;2023-05-15T13:48:58;1.53;;;1.43;;
14100;SDS011;7127;49.372;8.166;2023-05-15T13:51:26;1.30;;;1.20;;
14100;SDS011;7127;49.372;8.166;2023-05-15T13:53:52;1.60;;;1.37;;
14100;SDS011;7127;49.372;8.166;2023-05-15T13:56:20;1.40;;;1.30;;
14100;SDS011;7127;49.372;8.166;2023-05-15T13:58:47;1.03;;;1.00;;
14100;SDS011;7127;49.372;8.166;2023-05-15T14:01:13;1.30;;;1.20;;
14100;SDS011;7127;49.372;8.166;2023-05-15T14:03:40;1.33;;;1.00;;
14100;SDS011;7127;49.372;8.166;2023-05-15T14:06:09;1.37;;;1.27;;
14100;SDS011;7127;49.372;8.166;2023-05-15T14:08:36;1.10;;;1.00;;
14100;SDS011;7127;49.372;8.166;2023-05-15T14:11:03;1.43;;;1.33;;
14100;SDS011;7127;49.372;8.166;2023-05-15T14:13:30;1.40;;;1.10;;
14100;SDS011;7127;49.372;8.166;2023-05-15T14:15:58;1.30;;;1.20;;
14100;SDS011;7127;49.372;8.166;2023-05-15T14:18:25;1.20;;;1.13;;
14100;SDS011;7127;49.372;8.166;2023-05-15T14:20:52;1.00;;;1.00;;
14100;SDS011;7127;49.372;8.166;2023-05-15T14:23:21;1.60;;;1.48;;
14100;SDS011;7127;49.372;8.166;2023-05-15T14:25:48;1.30;;;1.07;;
14100;SDS011;7127;49.372;8.166;2023-05-15T14:28:15;1.60;;;1.50;;
14100;SDS011;7127;49.372;8.166;2023-05-15T14:30:42;1.35;;;1.25;;
14100;SDS011;7127;49.372;8.166;2023-05-15T14:33:09;1.48;;;1.30;;
14100;SDS011;7127;49.372;8.166;2023-05-15T14:35:36;1.60;;;1.50;;
14100;SDS011;7127;49.372;8.166;2023-05-15T14:38:03;2.83;;;1.45;;
14100;SDS011;7127;49.372;8.166;2023-05-15T14:40:32;1.70;;;1.60;;
14100;SDS011;7127;49.372;8.166;2023-05-15T14:42:59;1.30;;;1.20;;
14100;SDS011;7127;49.372;8.166;2023-05-15T14:45:26;1.83;;;1.35;;
14100;SDS011;7127;49.372;8.166;2023-05-15T14:47:53;2.43;;;1.30;;
14100;SDS011;7127;49.372;8.166;2023-05-15T14:50:20;1.42;;;1.33;;
14100;SDS011;7127;49.372;8.166;2023-05-15T14:52:47;2.07;;;1.70;;
14100;SDS011;7127;49.372;8.166;2023-05-15T14:55:14;2.83;;;2.17;;
14100;SDS011;7127;49.372;8.166;2023-05-15T14:57:47;3.20;;;2.90;;
14100;SDS011;7127;49.372;8.166;2023-05-15T15:00:15;3.70;;;3.40;;
14100;SDS011;7127;49.372;8.166;2023-05-15T15:02:42;3.60;;;3.30;;
14100;SDS011;7127;49.372;8.166;2023-05-15T15:05:09;3.63;;;3.33;;
14100;SDS011;7127;49.372;8.166;2023-05-15T15:10:26;3.80;;;3.10;;
14100;SDS011;7127;49.372;8.166;2023-05-15T15:12:54;4.13;;;3.30;;
14100;SDS011;7127;49.372;8.166;2023-05-15T15:15:21;4.80;;;3.23;;
14100;SDS011;7127;49.372;8.166;2023-05-15T15:17:50;3.33;;;3.03;;
14100;SDS011;7127;49.372;8.166;2023-05-15T15:20:17;4.90;;;3.40;;
14100;SDS011;7127;49.372;8.166;2023-05-15T15:22:45;3.83;;;3.40;;
14100;SDS011;7127;49.372;8.166;2023-05-15T15:25:13;3.53;;;3.00;;
14100;SDS011;7127;49.372;8.166;2023-05-15T15:27:39;4.27;;;3.57;;